Time;durP1;ratioP1;P1;durP2;ratioP2;P2;SDS_P1;SDS_P2;PMS_P1;PMS_P2;Temp;Humidity;BMP_temperature;BMP_pressure;BME280_temperature;BME280_humidity;BME280_pressure;Samples;Min_cycle;Max_cycle;Signal;HPM_P1;HPM_P2
2022/01/18 00:01:20;;;;;;;29.27;6.43;;;6.30;99.90;;;;;;5121113;27;20125;-77
2022/01/18 00:03:46;;;;;;;27.83;7.30;;;6.20;99.90;;;;;;5120882;27;20395;-77
2022/01/18 00:06:13;;;;;;;39.70;8.25;;;6.20;99.90;;;;;;5145671;27;20486;-77
2022/01/18 00:08:39;;;;;;;38.92;7.13;;;6.20;99.90;;;;;;5121571;27;20054;-77
2022/01/18 00:11:06;;;;;;;59.88;9.35;;;6.20;99.90;;;;;;5115494;27;20043;-78
2022/01/18 00:13:39;;;;;;;57.78;9.23;;;6.20;99.90;;;;;;5142690;27;20040;-78
2022/01/18 00:16:13;;;;;;;49.40;11.13;;;6.30;99.90;;;;;;5135806;27;20047;-78
2022/01/18 00:18:39;;;;;;;38.03;8.75;;;6.20;99.90;;;;;;5128341;27;20107;-78
2022/01/18 00:21:23;;;;;;;49.20;9.38;;;6.20;99.90;;;;;;5148934;27;20043;-78
2022/01/18 00:23:51;;;;;;;41.17;9.45;;;6.30;99.90;;;;;;5122270;27;20095;-77
2022/01/18 00:26:18;;;;;;;50.33;10.13;;;6.30;99.90;;;;;;5131631;27;20474;-77
2022/01/18 00:28:50;;;;;;;40.83;9.00;;;6.30;99.90;;;;;;5129150;27;20039;-76
2022/01/18 00:31:37;;;;;;;45.25;10.57;;;6.40;99.90;;;;;;5119936;27;20062;-77
2022/01/18 00:34:08;;;;;;;39.70;9.77;;;6.40;99.90;;;;;;5144272;27;20377;-78
2022/01/18 00:36:42;;;;;;;66.63;11.95;;;6.40;99.90;;;;;;5138117;27;20051;-78
2022/01/18 00:39:08;;;;;;;37.33;8.77;;;6.40;99.90;;;;;;5121256;27;20131;-78
2022/01/18 00:41:35;;;;;;;58.28;10.70;;;6.40;99.90;;;;;;5111114;28;20040;-78
2022/01/18 00:44:01;;;;;;;75.93;14.13;;;6.40;99.90;;;;;;5126362;28;20039;-78
2022/01/18 00:46:28;;;;;;;51.00;10.20;;;6.30;99.90;;;;;;5127156;28;20051;-77
2022/01/18 00:48:57;;;;;;;61.53;9.43;;;6.30;99.90;;;;;;5121386;28;20059;-77
2022/01/18 00:51:23;;;;;;;41.15;8.70;;;6.30;99.90;;;;;;5123178;28;20478;-77
2022/01/18 00:53:50;;;;;;;54.47;9.68;;;6.30;99.90;;;;;;5114455;28;20039;-78
2022/01/18 00:56:23;;;;;;;47.25;8.88;;;6.20;99.90;;;;;;5111729;28;20048;-76
2022/01/18 00:58:50;;;;;;;56.92;9.70;;;6.10;99.90;;;;;;5117533;28;20039;-77
2022/01/18 01:01:16;;;;;;;52.47;10.90;;;6.00;99.90;;;;;;5125901;28;20043;-77
2022/01/18 01:03:43;;;;;;;57.80;8.73;;;6.00;99.90;;;;;;5129390;28;20051;-78
2022/01/18 01:06:09;;;;;;;56.55;9.45;;;6.10;99.90;;;;;;5116983;28;20054;-76
2022/01/18 01:08:36;;;;;;;58.80;9.88;;;6.00;99.90;;;;;;5117971;28;20059;-76
2022/01/18 01:11:03;;;;;;;54.70;9.70;;;6.00;99.90;;;;;;5113215;28;20055;-77
2022/01/18 01:13:30;;;;;;;47.97;10.20;;;5.90;99.90;;;;;;5122084;28;20051;-77
2022/01/18 01:16:07;;;;;;;51.70;9.43;;;5.80;99.90;;;;;;5116451;28;20058;-77
2022/01/18 01:18:43;;;;;;;61.70;10.40;;;5.80;99.90;;;;;;5118733;28;20096;-78
2022/01/18 01:32:36;;;;;;;37.00;8.98;;;5.60;99.90;;;;;;5120257;28;20474;-77
2022/01/18 01:35:10;;;;;;;42.00;9.68;;;5.60;99.90;;;;;;5117030;28;20055;-78
2022/01/18 01:43:21;;;;;;;53.47;7.40;;;5.60;99.90;;;;;;5117115;27;20075;-77
2022/01/18 01:45:48;;;;;;;61.95;10.23;;;5.50;99.90;;;;;;5128081;27;20044;-78
2022/01/18 01:48:17;;;;;;;50.20;9.13;;;5.40;99.90;;;;;;5115710;27;20105;-77
2022/01/18 01:50:48;;;;;;;57.53;8.15;;;5.40;99.90;;;;;;5130514;27;20442;-78
2022/01/18 01:53:14;;;;;;;55.00;9.27;;;5.40;99.90;;;;;;5124274;27;20051;-78
2022/01/18 01:55:41;;;;;;;49.42;8.13;;;5.40;99.90;;;;;;5127526;27;20052;-77
2022/01/18 01:58:07;;;;;;;49.15;9.70;;;5.50;99.90;;;;;;5123881;27;20070;-76
2022/01/18 02:00:34;;;;;;;44.63;7.65;;;5.40;99.90;;;;;;5124986;27;20050;-77
2022/01/18 02:03:00;;;;;;;62.63;10.77;;;5.40;99.90;;;;;;5129979;27;20051;-78
2022/01/18 02:05:27;;;;;;;43.55;10.50;;;5.40;99.90;;;;;;5131019;27;20134;-77
2022/01/18 02:07:54;;;;;;;52.28;8.40;;;5.40;99.90;;;;;;5113171;27;20047;-77
2022/01/18 02:10:20;;;;;;;40.13;7.80;;;5.40;99.90;;;;;;5126868;27;20050;-77
2022/01/18 02:12:47;;;;;;;53.25;8.45;;;5.40;99.90;;;;;;5131269;27;20047;-78
2022/01/18 02:15:17;;;;;;;60.45;9.73;;;5.30;99.90;;;;;;5121437;27;20047;-77
2022/01/18 02:23:12;;;;;;;44.53;7.63;;;5.50;99.90;;;;;;5124192;27;20047;-78
2022/01/18 02:25:38;;;;;;;60.00;9.75;;;5.50;99.90;;;;;;5117326;27;20052;-77
2022/01/18 02:28:05;;;;;;;45.05;7.43;;;5.40;99.90;;;;;;5130626;27;20583;-78
2022/01/18 02:30:31;;;;;;;55.88;9.00;;;5.50;99.90;;;;;;5119775;27;20479;-76
2022/01/18 02:32:58;;;;;;;50.10;8.43;;;5.50;99.90;;;;;;5132551;27;20039;-77
2022/01/18 02:35:24;;;;;;;57.70;8.32;;;5.50;99.90;;;;;;5132211;27;20069;-77
2022/01/18 02:37:51;;;;;;;60.22;10.75;;;5.60;99.90;;;;;;5126270;27;20047;-78
2022/01/18 02:40:17;;;;;;;34.08;8.45;;;5.60;99.90;;;;;;5119322;27;20047;-78
2022/01/18 02:42:55;;;;;;;51.58;8.55;;;5.70;99.90;;;;;;5117840;27;20051;-77
2022/01/18 02:45:22;;;;;;;45.13;8.32;;;5.70;99.90;;;;;;5127899;27;20130;-78
2022/01/18 02:47:48;;;;;;;50.28;8.80;;;5.70;99.90;;;;;;5115805;27;20467;-78
2022/01/18 02:50:15;;;;;;;36.13;9.27;;;5.70;99.90;;;;;;5114572;27;20475;-77
2022/01/18 02:52:41;;;;;;;42.35;8.93;;;5.70;99.90;;;;;;5116214;27;20055;-78
2022/01/18 02:55:08;;;;;;;47.10;8.02;;;5.80;99.90;;;;;;5118748;27;20048;-77
2022/01/18 02:57:42;;;;;;;45.85;7.43;;;5.70;99.90;;;;;;5119258;27;20039;-76
2022/01/18 03:00:18;;;;;;;43.80;8.00;;;5.70;99.90;;;;;;5130908;27;20104;-77
2022/01/18 03:05:29;;;;;;;45.00;8.07;;;5.90;99.90;;;;;;5129109;27;20052;-78
2022/01/18 03:07:55;;;;;;;36.42;6.38;;;5.90;99.90;;;;;;5118355;27;20047;-78
2022/01/18 03:10:22;;;;;;;40.15;7.55;;;5.90;99.90;;;;;;5129990;27;20056;-78
2022/01/18 03:12:48;;;;;;;34.85;6.68;;;5.90;99.90;;;;;;5113095;27;20055;-78
2022/01/18 03:15:15;;;;;;;32.17;6.85;;;5.90;99.90;;;;;;5113527;27;20055;-78
2022/01/18 03:17:42;;;;;;;34.65;6.43;;;5.90;99.90;;;;;;5119350;27;20054;-78
2022/01/18 03:20:11;;;;;;;37.58;7.03;;;5.90;99.90;;;;;;5114565;27;20054;-78
2022/01/18 03:22:37;;;;;;;35.28;6.03;;;5.90;99.90;;;;;;5127491;27;20050;-77
2022/01/18 03:25:24;;;;;;;46.30;7.22;;;5.90;99.90;;;;;;5117353;27;20048;-78
2022/01/18 03:30:37;;;;;;;29.45;6.68;;;6.00;99.90;;;;;;5113270;27;20043;-77
2022/01/18 03:33:04;;;;;;;32.08;6.30;;;5.90;99.90;;;;;;5131863;27;20054;-78
2022/01/18 03:35:30;;;;;;;31.15;6.82;;;5.80;99.90;;;;;;5126740;27;20414;-78
2022/01/18 03:37:57;;;;;;;56.05;8.55;;;5.90;99.90;;;;;;5111267;28;20127;-78
2022/01/18 03:40:23;;;;;;;55.92;5.72;;;5.90;99.90;;;;;;5129044;27;20066;-78
2022/01/18 03:42:51;;;;;;;53.58;7.82;;;5.80;99.90;;;;;;5113302;27;20054;-77
2022/01/18 03:45:17;;;;;;;42.20;6.22;;;5.80;99.90;;;;;;5126059;27;20048;-77
2022/01/18 03:47:44;;;;;;;37.00;6.15;;;5.90;99.90;;;;;;5121727;27;20055;-78
2022/01/18 03:50:11;;;;;;;49.83;8.52;;;5.90;99.90;;;;;;5116206;27;20052;-78
2022/01/18 03:52:38;;;;;;;26.83;6.47;;;5.80;99.90;;;;;;5113247;27;20055;-78
2022/01/18 03:55:04;;;;;;;34.20;6.95;;;5.90;99.90;;;;;;5119024;27;20138;-78
2022/01/18 03:57:31;;;;;;;22.60;6.03;;;5.90;99.90;;;;;;5127557;27;20058;-78
2022/01/18 03:59:57;;;;;;;34.92;6.93;;;5.90;99.90;;;;;;5129022;27;20062;-78
2022/01/18 04:02:24;;;;;;;32.50;6.57;;;6.00;99.90;;;;;;5112059;27;20069;-78
2022/01/18 04:04:50;;;;;;;34.58;6.22;;;5.90;99.90;;;;;;5112107;27;20502;-77
2022/01/18 04:07:17;;;;;;;23.20;4.90;;;6.00;99.90;;;;;;5123846;27;20058;-77
2022/01/18 04:09:43;;;;;;;28.95;5.45;;;6.10;99.90;;;;;;5111412;28;20055;-78
2022/01/18 04:12:10;;;;;;;17.38;4.88;;;6.10;99.90;;;;;;5113952;27;20047;-78
2022/01/18 04:14:36;;;;;;;36.28;5.47;;;6.00;99.90;;;;;;5113017;27;20043;-76
2022/01/18 04:17:09;;;;;;;24.80;5.15;;;6.10;99.90;;;;;;5116346;27;20051;-78
2022/01/18 04:27:56;;;;;;;12.05;4.32;;;6.00;99.90;;;;;;5131919;27;20099;-78
2022/01/18 04:30:23;;;;;;;21.73;5.40;;;6.10;99.90;;;;;;5117697;27;20137;-78
2022/01/18 04:32:50;;;;;;;14.68;4.18;;;6.10;99.90;;;;;;5120446;27;20043;-79
2022/01/18 04:35:16;;;;;;;11.27;4.68;;;6.00;99.90;;;;;;5115969;27;20046;-79
2022/01/18 04:37:43;;;;;;;17.05;4.50;;;6.10;99.90;;;;;;5120944;27;20387;-78
2022/01/18 04:40:14;;;;;;;33.60;5.10;;;6.10;99.90;;;;;;5109892;28;20501;-78
2022/01/18 04:42:59;;;;;;;;;;;6.20;99.90;;;;;;5117869;28;20044;-77
2022/01/18 04:48:28;;;;;;;20.67;3.88;;;6.20;99.90;;;;;;5110238;28;20134;-79
2022/01/18 04:50:54;;;;;;;19.13;4.07;;;6.20;99.90;;;;;;5121123;28;20566;-78
2022/01/18 04:53:21;;;;;;;17.95;3.75;;;6.20;99.90;;;;;;5120811;28;20083;-79
2022/01/18 04:55:53;;;;;;;15.80;3.80;;;6.10;99.90;;;;;;5122432;28;20066;-79
2022/01/18 04:58:19;;;;;;;20.25;3.58;;;6.10;99.90;;;;;;5118527;28;20466;-79
2022/01/18 05:00:46;;;;;;;20.90;4.80;;;6.20;99.90;;;;;;5120505;28;20387;-78
2022/01/18 05:03:13;;;;;;;22.35;4.13;;;6.20;99.90;;;;;;5128519;28;20402;-78
2022/01/18 05:05:39;;;;;;;19.58;4.78;;;6.20;99.90;;;;;;5118321;28;20431;-78
2022/01/18 05:08:12;;;;;;;19.15;4.80;;;6.20;99.90;;;;;;5110150;28;20432;-79
2022/01/18 05:10:38;;;;;;;14.07;3.83;;;6.20;99.90;;;;;;5118492;28;20433;-79
2022/01/18 05:13:14;;;;;;;23.73;3.97;;;6.40;99.90;;;;;;5125020;28;20458;-78
2022/01/18 05:15:46;;;;;;;18.92;4.07;;;6.20;99.90;;;;;;5124567;27;20058;-79
2022/01/18 05:21:13;;;;;;;25.23;4.15;;;6.10;99.90;;;;;;5115640;28;20055;-77
2022/01/18 05:23:39;;;;;;;17.58;3.53;;;6.10;99.90;;;;;;5132202;27;20111;-79
2022/01/18 05:26:05;;;;;;;12.05;3.80;;;6.20;99.90;;;;;;5134103;27;20050;-79
2022/01/18 05:28:32;;;;;;;18.27;3.25;;;6.20;99.90;;;;;;5122755;27;20047;-78
2022/01/18 05:30:58;;;;;;;29.73;3.92;;;6.30;99.90;;;;;;5114721;27;20051;-79
2022/01/18 05:33:25;;;;;;;10.43;3.22;;;6.20;99.90;;;;;;5119612;27;20058;-79
2022/01/18 05:35:52;;;;;;;14.52;2.63;;;6.20;99.90;;;;;;5123420;27;20055;-78
2022/01/18 05:38:18;;;;;;;11.25;2.40;;;6.20;99.90;;;;;;5120646;27;20054;-79
2022/01/18 05:40:45;;;;;;;9.55;3.22;;;6.20;99.90;;;;;;5132379;27;20062;-78
2022/01/18 05:43:11;;;;;;;15.40;2.88;;;6.10;99.90;;;;;;5138472;27;20050;-78
2022/01/18 05:45:38;;;;;;;6.07;1.88;;;6.10;99.90;;;;;;5133954;27;20054;-78
2022/01/18 05:48:04;;;;;;;14.77;2.70;;;6.10;99.90;;;;;;5154258;27;20069;-79
2022/01/18 05:50:31;;;;;;;15.45;2.58;;;6.10;99.90;;;;;;5130608;27;20062;-77
2022/01/18 05:52:57;;;;;;;9.43;2.85;;;6.10;99.90;;;;;;5148799;27;21030;-79
2022/01/18 05:55:24;;;;;;;10.70;3.05;;;6.00;99.90;;;;;;5150810;27;20049;-79
2022/01/18 05:57:50;;;;;;;11.98;2.50;;;6.10;99.90;;;;;;5127336;27;20058;-78
2022/01/18 06:00:22;;;;;;;15.10;2.70;;;6.00;99.90;;;;;;5117163;27;20051;-79
2022/01/18 06:03:00;;;;;;;13.00;2.17;;;6.10;99.90;;;;;;5128689;27;20039;-79
2022/01/18 06:08:11;;;;;;;5.05;1.50;;;6.10;99.90;;;;;;5142539;27;20046;-79
2022/01/18 06:10:37;;;;;;;16.73;2.63;;;6.10;99.90;;;;;;5149750;27;20058;-78
2022/01/18 06:13:04;;;;;;;12.23;2.55;;;6.10;99.90;;;;;;5136500;27;20054;-79
2022/01/18 06:15:31;;;;;;;10.10;2.28;;;6.10;99.90;;;;;;5133434;27;20043;-76
2022/01/18 06:17:57;;;;;;;8.15;2.65;;;6.10;99.90;;;;;;5154325;27;20066;-78
2022/01/18 06:20:24;;;;;;;15.80;3.08;;;6.10;99.90;;;;;;5132939;27;20050;-78
2022/01/18 06:22:51;;;;;;;10.63;2.67;;;6.10;99.90;;;;;;5136404;27;20366;-78
2022/01/18 06:25:18;;;;;;;10.57;2.97;;;6.10;99.90;;;;;;5127786;27;20068;-78
2022/01/18 06:27:44;;;;;;;7.68;2.08;;;6.00;99.90;;;;;;5137384;27;20058;-78
2022/01/18 06:30:11;;;;;;;8.15;1.75;;;6.00;99.90;;;;;;5141924;27;20058;-78
2022/01/18 06:32:38;;;;;;;11.57;2.70;;;6.00;99.90;;;;;;5125535;27;20050;-77
2022/01/18 06:35:04;;;;;;;12.20;2.00;;;6.00;99.90;;;;;;5140343;27;20055;-78
2022/01/18 06:37:31;;;;;;;18.52;4.20;;;6.00;99.90;;;;;;5124203;27;20058;-78
2022/01/18 06:39:59;;;;;;;9.85;2.67;;;6.00;99.90;;;;;;5116866;27;20051;-78
2022/01/18 06:42:25;;;;;;;10.93;2.78;;;6.00;99.90;;;;;;5127169;27;20070;-78
2022/01/18 06:44:52;;;;;;;13.43;2.03;;;6.00;99.90;;;;;;5146299;27;20047;-78
2022/01/18 06:47:19;;;;;;;9.02;2.45;;;6.00;99.90;;;;;;5144352;27;20046;-78
2022/01/18 06:49:45;;;;;;;7.25;2.70;;;6.00;99.90;;;;;;5139114;27;20520;-78
2022/01/18 06:52:12;;;;;;;16.10;2.63;;;6.00;99.90;;;;;;5133961;27;20466;-79
2022/01/18 06:54:38;;;;;;;6.68;1.85;;;6.00;99.90;;;;;;5126521;27;20490;-78
2022/01/18 06:57:05;;;;;;;28.98;2.50;;;6.00;99.90;;;;;;5132881;27;20101;-78
2022/01/18 06:59:31;;;;;;;12.10;2.25;;;6.00;99.90;;;;;;5141517;27;20051;-78
2022/01/18 07:01:58;;;;;;;11.70;2.50;;;5.90;99.90;;;;;;5126089;27;20054;-78
2022/01/18 07:04:24;;;;;;;11.23;1.98;;;6.00;99.90;;;;;;5128395;27;20458;-78
2022/01/18 07:06:51;;;;;;;8.45;1.58;;;5.90;99.90;;;;;;5147953;27;20066;-78
2022/01/18 07:09:22;;;;;;;9.52;2.33;;;5.90;99.90;;;;;;5126058;27;20054;-78
2022/01/18 07:11:49;;;;;;;8.07;2.78;;;5.90;99.90;;;;;;5128873;27;20055;-77
2022/01/18 07:14:15;;;;;;;16.67;2.40;;;5.90;99.90;;;;;;5128514;27;20051;-79
2022/01/18 07:16:42;;;;;;;8.02;2.33;;;5.90;99.90;;;;;;5133772;27;20385;-77
2022/01/18 07:19:08;;;;;;;5.75;2.88;;;5.90;99.90;;;;;;5129170;27;20043;-78
2022/01/18 07:21:35;;;;;;;16.13;3.20;;;5.90;99.90;;;;;;5142235;27;20043;-78
2022/01/18 07:24:06;;;;;;;14.57;3.80;;;6.00;99.90;;;;;;5122101;27;20051;-79
2022/01/18 07:26:32;;;;;;;18.83;3.97;;;5.90;99.90;;;;;;5125165;27;20957;-79
2022/01/18 07:28:59;;;;;;;17.95;2.80;;;5.90;99.90;;;;;;5138358;27;20482;-78
2022/01/18 07:31:25;;;;;;;17.10;3.17;;;5.90;99.90;;;;;;5128528;27;20103;-78
2022/01/18 07:33:52;;;;;;;8.75;3.03;;;5.90;99.90;;;;;;5138648;27;20047;-78
2022/01/18 07:36:19;;;;;;;22.50;3.78;;;5.90;99.90;;;;;;5144775;27;20043;-76
2022/01/18 07:38:45;;;;;;;16.05;3.50;;;5.90;99.90;;;;;;5142468;27;20042;-78
2022/01/18 07:41:12;;;;;;;11.18;2.58;;;5.90;99.90;;;;;;5119373;27;20059;-79
2022/01/18 07:43:40;;;;;;;23.83;4.05;;;5.90;99.90;;;;;;5152099;27;20486;-78
2022/01/18 07:46:07;;;;;;;11.30;2.78;;;5.90;99.90;;;;;;5128859;27;20549;-78
2022/01/18 07:48:33;;;;;;;13.38;2.90;;;5.90;99.90;;;;;;5131827;27;20169;-77
2022/01/18 07:51:00;;;;;;;21.52;3.92;;;5.90;99.90;;;;;;5122471;27;20043;-78
2022/01/18 07:53:26;;;;;;;17.75;4.10;;;5.90;99.90;;;;;;5117438;27;20054;-77
2022/01/18 07:55:53;;;;;;;18.20;3.50;;;5.90;99.90;;;;;;5134148;27;20061;-78
2022/01/18 07:58:19;;;;;;;13.98;3.95;;;5.90;99.90;;;;;;5146086;27;20147;-78
2022/01/18 08:00:47;;;;;;;19.75;3.55;;;5.90;99.90;;;;;;5119057;27;20496;-78
2022/01/18 08:03:13;;;;;;;16.95;4.00;;;5.90;99.90;;;;;;5138064;27;20131;-78
2022/01/18 08:05:40;;;;;;;9.95;3.50;;;5.90;99.90;;;;;;5129029;27;20050;-78
2022/01/18 08:08:06;;;;;;;13.00;4.90;;;5.90;99.90;;;;;;5128344;27;20047;-78
2022/01/18 08:10:33;;;;;;;14.02;4.47;;;5.90;99.90;;;;;;5124380;27;20538;-78
2022/01/18 08:13:01;;;;;;;17.65;4.07;;;5.90;99.90;;;;;;5121155;27;20466;-77
2022/01/18 08:15:29;;;;;;;8.63;3.63;;;5.90;99.90;;;;;;5146775;27;20096;-79
2022/01/18 08:17:55;;;;;;;23.73;5.47;;;5.90;99.90;;;;;;5130616;27;20070;-78
2022/01/18 08:20:22;;;;;;;14.95;3.55;;;5.90;99.90;;;;;;5120522;27;20055;-79
2022/01/18 08:22:48;;;;;;;19.63;3.70;;;5.90;99.90;;;;;;5127914;27;20051;-79
2022/01/18 08:25:15;;;;;;;17.30;4.10;;;5.90;99.90;;;;;;5140268;27;20051;-79
2022/01/18 08:27:42;;;;;;;21.95;3.75;;;6.00;99.90;;;;;;5126647;27;20047;-78
2022/01/18 08:30:08;;;;;;;12.70;3.25;;;5.90;99.90;;;;;;5122339;27;20050;-78
2022/01/18 08:32:35;;;;;;;21.17;4.35;;;5.90;99.90;;;;;;5127484;27;20055;-79
2022/01/18 08:35:01;;;;;;;16.75;3.33;;;6.00;99.90;;;;;;5144278;27;20071;-78
2022/01/18 08:37:28;;;;;;;16.60;4.57;;;6.00;99.90;;;;;;5124058;27;20104;-79
2022/01/18 08:39:54;;;;;;;10.27;3.10;;;6.00;99.90;;;;;;5125983;27;20128;-78
2022/01/18 08:42:21;;;;;;;13.77;3.55;;;6.00;99.90;;;;;;5134212;27;20051;-79
2022/01/18 08:44:47;;;;;;;16.83;3.72;;;6.00;99.90;;;;;;5145724;27;20038;-79
2022/01/18 08:47:14;;;;;;;12.45;3.80;;;6.10;99.90;;;;;;5124660;28;20062;-79
2022/01/18 08:49:40;;;;;;;6.50;3.00;;;6.10;99.90;;;;;;5125421;27;20058;-78
2022/01/18 08:52:07;;;;;;;12.00;4.05;;;6.10;99.90;;;;;;5122246;27;20053;-78
2022/01/18 08:54:34;;;;;;;16.95;4.07;;;6.10;99.90;;;;;;5120940;27;20047;-79
2022/01/18 08:57:01;;;;;;;9.70;2.72;;;6.10;99.90;;;;;;5141756;27;20043;-78
2022/01/18 08:59:28;;;;;;;10.73;3.03;;;6.10;99.90;;;;;;5123702;27;20059;-79
2022/01/18 09:01:54;;;;;;;18.25;4.45;;;6.10;99.90;;;;;;5147069;27;20078;-78
2022/01/18 09:04:21;;;;;;;6.53;2.63;;;6.20;99.90;;;;;;5120810;27;20046;-78
2022/01/18 09:06:50;;;;;;;12.52;3.15;;;6.20;99.90;;;;;;5125438;27;20059;-78
2022/01/18 09:09:17;;;;;;;15.38;4.28;;;6.20;99.90;;;;;;5122084;27;20062;-78
2022/01/18 09:11:45;;;;;;;7.68;2.83;;;6.20;99.90;;;;;;5119984;28;20405;-78
2022/01/18 09:14:11;;;;;;;13.93;3.55;;;6.20;99.90;;;;;;5125519;27;20047;-78
2022/01/18 09:16:38;;;;;;;15.82;3.63;;;6.20;99.90;;;;;;5147055;27;20081;-77
2022/01/18 09:19:04;;;;;;;16.63;3.10;;;6.20;99.90;;;;;;5143603;27;20066;-79
2022/01/18 09:21:32;;;;;;;6.57;2.75;;;6.20;99.90;;;;;;5128475;28;20062;-77
2022/01/18 09:23:59;;;;;;;7.75;2.78;;;6.30;99.90;;;;;;5141716;27;20057;-78
2022/01/18 09:26:25;;;;;;;13.05;3.15;;;6.30;99.90;;;;;;5127183;27;20055;-79
2022/01/18 09:28:52;;;;;;;10.25;2.90;;;6.30;99.90;;;;;;5122932;28;20433;-78
2022/01/18 09:31:19;;;;;;;14.35;2.95;;;6.40;99.90;;;;;;5119521;27;20043;-77
2022/01/18 09:33:45;;;;;;;11.68;2.75;;;6.40;99.90;;;;;;5149686;27;20051;-78
2022/01/18 09:36:12;;;;;;;7.80;2.92;;;6.40;99.90;;;;;;5150773;27;20058;-78
2022/01/18 09:38:38;;;;;;;8.27;2.83;;;6.40;99.90;;;;;;5118372;28;20054;-78
2022/01/18 09:41:10;;;;;;;19.85;3.60;;;6.50;99.90;;;;;;5128263;27;20050;-78
2022/01/18 09:43:37;;;;;;;5.82;2.17;;;6.50;99.90;;;;;;5126886;27;20140;-78
2022/01/18 09:46:04;;;;;;;6.93;1.95;;;6.50;99.90;;;;;;5147412;27;20122;-78
2022/01/18 09:48:30;;;;;;;8.32;2.95;;;6.60;99.90;;;;;;5128341;27;20113;-78
2022/01/18 09:50:58;;;;;;;18.52;3.90;;;6.60;99.90;;;;;;5148376;27;20057;-78
2022/01/18 09:53:25;;;;;;;14.98;3.20;;;6.60;99.90;;;;;;5148404;27;20047;-79
2022/01/18 09:55:53;;;;;;;11.25;3.35;;;6.70;99.90;;;;;;5130136;27;20498;-79
2022/01/18 09:58:19;;;;;;;19.25;5.53;;;6.70;99.90;;;;;;5128375;27;20651;-79
2022/01/18 10:00:46;;;;;;;21.38;6.93;;;6.70;99.90;;;;;;5131225;27;20485;-78
2022/01/18 10:03:12;;;;;;;14.15;7.43;;;6.70;99.90;;;;;;5133110;27;20404;-78
2022/01/18 10:05:39;;;;;;;26.52;9.77;;;6.70;99.90;;;;;;5151366;27;20623;-79
2022/01/18 10:08:06;;;;;;;27.85;11.90;;;6.80;99.90;;;;;;5131365;27;20374;-78
2022/01/18 10:10:32;;;;;;;36.67;19.27;;;6.80;99.90;;;;;;5132550;27;20051;-78
2022/01/18 10:12:59;;;;;;;21.90;15.93;;;6.90;99.90;;;;;;5152934;27;20432;-78
2022/01/18 10:15:25;;;;;;;20.70;11.38;;;6.90;99.90;;;;;;5134308;27;20050;-79
2022/01/18 10:17:52;;;;;;;18.20;11.13;;;6.90;99.90;;;;;;5130675;27;20462;-78
2022/01/18 10:20:20;;;;;;;20.67;12.70;;;6.90;99.90;;;;;;5133053;27;20398;-77
2022/01/18 10:22:49;;;;;;;20.50;13.02;;;6.90;99.90;;;;;;5134025;27;20630;-78
2022/01/18 10:25:15;;;;;;;22.20;10.55;;;6.90;99.90;;;;;;5134276;27;20440;-78
2022/01/18 10:27:42;;;;;;;14.05;9.05;;;7.00;99.90;;;;;;5131820;27;20057;-78
2022/01/18 10:30:09;;;;;;;31.23;18.85;;;7.00;99.90;;;;;;5134627;27;20059;-79
2022/01/18 10:32:40;;;;;;;35.85;23.55;;;7.00;99.90;;;;;;5135016;27;20085;-78
2022/01/18 10:35:08;;;;;;;21.52;17.50;;;7.00;99.90;;;;;;5129543;27;20116;-78
2022/01/18 10:37:35;;;;;;;21.30;12.70;;;7.10;99.90;;;;;;5149650;27;20046;-78
2022/01/18 10:40:02;;;;;;;19.70;9.88;;;7.00;99.90;;;;;;5151703;27;20103;-77
2022/01/18 10:42:31;;;;;;;20.15;14.07;;;7.00;99.90;;;;;;5151003;27;20050;-79
2022/01/18 10:44:58;;;;;;;31.15;19.95;;;7.10;99.90;;;;;;5152457;27;20125;-78
2022/01/18 10:47:24;;;;;;;40.63;21.48;;;7.10;99.90;;;;;;5131861;27;20515;-78
2022/01/18 10:49:51;;;;;;;46.60;23.65;;;7.10;99.90;;;;;;5132332;27;20054;-78
2022/01/18 10:52:18;;;;;;;30.45;20.17;;;7.20;99.90;;;;;;5132928;27;20469;-78
2022/01/18 10:54:44;;;;;;;31.85;22.85;;;7.20;99.90;;;;;;5148207;27;20379;-78
2022/01/18 10:57:12;;;;;;;31.60;21.27;;;7.20;99.90;;;;;;5125980;27;20047;-79
2022/01/18 10:59:38;;;;;;;36.28;19.48;;;7.20;99.90;;;;;;5118391;27;20046;-78
2022/01/18 11:02:05;;;;;;;22.08;16.00;;;7.20;99.90;;;;;;5130983;27;20505;-78
2022/01/18 11:04:31;;;;;;;29.38;16.35;;;7.20;99.90;;;;;;5134265;27;20496;-79
2022/01/18 11:06:58;;;;;;;24.52;13.77;;;7.30;99.90;;;;;;5150080;27;20409;-78
2022/01/18 11:09:25;;;;;;;25.92;13.27;;;7.30;99.90;;;;;;5131747;27;20058;-78
2022/01/18 11:11:51;;;;;;;14.18;6.90;;;7.30;99.90;;;;;;5148904;27;20076;-79
2022/01/18 11:14:19;;;;;;;17.38;7.75;;;7.30;99.90;;;;;;5150316;27;20409;-82
2022/01/18 11:16:46;;;;;;;17.52;8.85;;;7.30;99.90;;;;;;5128066;27;20054;-78
2022/01/18 11:19:29;;;;;;;15.90;8.38;;;7.30;99.90;;;;;;5117727;27;20058;-78
2022/01/18 11:21:56;;;;;;;16.10;5.88;;;7.30;99.90;;;;;;5126568;27;20050;-77
2022/01/18 11:24:22;;;;;;;10.93;6.28;;;7.30;99.90;;;;;;5131664;27;20051;-79
2022/01/18 11:26:49;;;;;;;14.77;6.03;;;7.20;99.90;;;;;;5117264;27;20047;-79
2022/01/18 11:29:16;;;;;;;19.70;4.13;;;7.20;99.90;;;;;;5128484;27;20457;-78
2022/01/18 11:31:43;;;;;;;7.43;2.38;;;7.20;99.90;;;;;;5127789;27;20549;-77
2022/01/18 11:34:10;;;;;;;8.13;2.55;;;7.20;99.90;;;;;;5127436;27;20103;-77
2022/01/18 11:36:38;;;;;;;7.43;1.80;;;7.20;99.90;;;;;;5133060;27;20055;-78
2022/01/18 11:39:05;;;;;;;15.00;3.50;;;7.20;99.90;;;;;;5148678;27;20122;-76
2022/01/18 11:41:34;;;;;;;10.43;2.47;;;7.20;99.90;;;;;;5150719;27;20046;-77
2022/01/18 11:44:02;;;;;;;6.32;2.38;;;7.20;99.90;;;;;;5147712;27;20099;-78
2022/01/18 11:46:29;;;;;;;8.63;2.67;;;7.20;99.90;;;;;;5131739;27;20039;-78
2022/01/18 11:48:56;;;;;;;16.55;3.25;;;7.20;99.90;;;;;;5151826;27;20061;-78
2022/01/18 11:51:23;;;;;;;8.43;2.05;;;7.20;99.90;;;;;;5131409;27;20049;-78
2022/01/18 11:54:06;;;;;;;10.75;2.33;;;7.20;99.90;;;;;;5130936;27;20052;-76
2022/01/18 11:56:32;;;;;;;7.65;2.90;;;7.20;99.90;;;;;;5131881;27;20049;-78
2022/01/18 11:58:59;;;;;;;9.65;2.85;;;7.20;99.90;;;;;;5130815;27;20114;-78
2022/01/18 12:01:25;;;;;;;9.35;2.97;;;7.30;99.90;;;;;;5131262;27;20465;-78
2022/01/18 12:03:52;;;;;;;14.15;3.72;;;7.30;99.90;;;;;;5122434;27;20059;-79
2022/01/18 12:06:19;;;;;;;19.05;4.20;;;7.30;99.90;;;;;;5129557;27;20043;-77
2022/01/18 12:08:45;;;;;;;5.22;3.90;;;7.30;99.90;;;;;;5125854;27;20085;-79
2022/01/18 12:11:12;;;;;;;18.77;4.03;;;7.30;99.90;;;;;;5130662;27;20042;-78
2022/01/18 12:13:38;;;;;;;15.65;4.28;;;7.30;99.90;;;;;;5134074;27;20054;-80
2022/01/18 12:16:05;;;;;;;10.05;3.80;;;7.30;99.90;;;;;;5131732;27;20058;-79
2022/01/18 12:18:31;;;;;;;14.13;4.35;;;7.30;99.90;;;;;;5130505;27;20043;-79
2022/01/18 12:20:58;;;;;;;14.63;4.65;;;7.30;99.90;;;;;;5129723;27;20054;-79
2022/01/18 12:23:24;;;;;;;10.10;3.38;;;7.40;99.90;;;;;;5131320;27;20050;-79
2022/01/18 12:25:59;;;;;;;11.38;4.90;;;7.30;99.90;;;;;;5129098;27;20038;-79
2022/01/18 12:28:32;;;;;;;12.73;4.50;;;7.30;99.90;;;;;;5130440;27;20053;-79
2022/01/18 12:31:06;;;;;;;11.73;3.35;;;7.30;99.90;;;;;;5127926;27;20055;-79
2022/01/18 12:33:33;;;;;;;18.67;3.45;;;7.30;99.90;;;;;;5131433;27;20460;-79
2022/01/18 12:35:59;;;;;;;16.15;3.00;;;7.30;99.90;;;;;;5129232;27;20039;-79
2022/01/18 12:38:26;;;;;;;11.02;3.88;;;7.30;99.90;;;;;;5132304;27;20494;-80
2022/01/18 12:40:53;;;;;;;7.55;3.28;;;7.20;99.90;;;;;;5126662;27;20383;-79
2022/01/18 12:46:04;;;;;;;10.55;3.95;;;7.20;99.90;;;;;;5120888;27;20040;-80
2022/01/18 12:48:30;;;;;;;25.08;4.85;;;7.20;99.90;;;;;;5121050;28;20054;-79
2022/01/18 12:50:57;;;;;;;15.52;4.80;;;7.20;99.90;;;;;;5128195;28;20039;-79
2022/01/18 12:53:23;;;;;;;16.02;5.45;;;7.20;99.90;;;;;;5129736;28;20054;-80
2022/01/18 12:55:52;;;;;;;14.10;5.00;;;7.20;99.90;;;;;;5130328;28;20054;-79
2022/01/18 12:58:19;;;;;;;15.57;5.20;;;7.20;99.90;;;;;;5127871;28;20051;-79
2022/01/18 13:00:45;;;;;;;15.02;6.45;;;7.20;99.90;;;;;;5127002;28;20079;-79
2022/01/18 13:03:12;;;;;;;13.88;3.70;;;7.20;99.90;;;;;;5124926;28;20046;-79
2022/01/18 13:05:38;;;;;;;12.13;3.30;;;7.20;99.90;;;;;;5127423;28;20050;-79
2022/01/18 13:08:05;;;;;;;10.73;3.88;;;7.10;99.90;;;;;;5130926;28;20066;-79
2022/01/18 13:10:32;;;;;;;11.60;4.63;;;7.00;99.90;;;;;;5128821;28;20055;-79
2022/01/18 13:12:59;;;;;;;15.75;3.88;;;7.10;99.90;;;;;;5123326;28;20092;-79
2022/01/18 13:15:35;;;;;;;17.08;6.13;;;7.10;99.90;;;;;;5114131;28;20048;-78
2022/01/18 13:23:43;;;;;;;14.82;4.35;;;7.10;99.90;;;;;;5126715;28;20047;-79
2022/01/18 13:26:09;;;;;;;9.32;3.80;;;7.10;99.90;;;;;;5118253;28;20051;-79
2022/01/18 13:28:36;;;;;;;8.48;3.85;;;7.00;99.90;;;;;;5118224;28;20848;-79
2022/01/18 13:31:02;;;;;;;8.85;3.13;;;7.00;99.90;;;;;;5128590;28;20623;-79
2022/01/18 13:33:29;;;;;;;16.75;4.25;;;7.00;99.90;;;;;;5116153;28;20047;-79
2022/01/18 13:35:56;;;;;;;14.63;4.28;;;7.00;99.90;;;;;;5123831;27;20048;-79
2022/01/18 13:38:23;;;;;;;7.25;3.63;;;7.00;99.90;;;;;;5123945;27;20051;-79
2022/01/18 13:40:50;;;;;;;9.60;3.50;;;6.90;99.90;;;;;;5120128;27;20054;-79
2022/01/18 13:43:19;;;;;;;11.45;3.58;;;6.90;99.90;;;;;;5126853;27;20055;-79